Time;durP1;ratioP1;P1;durP2;ratioP2;P2;SDS_P1;SDS_P2;PMS_P1;PMS_P2;Temp;Humidity;BMP_temperature;BMP_pressure;BME280_temperature;BME280_humidity;BME280_pressure;Samples;Min_cycle;Max_cycle;Signal;HPM_P1;HPM_P2
2022/10/01 00:01:14;;;;;;;20.60;19.50;;;;;;;;;;5105366;28;20437;-79
2022/10/01 00:03:42;;;;;;;20.90;19.70;;;;;;;;;;5105674;28;20480;-79
2022/10/01 00:06:11;;;;;;;20.80;19.60;;;;;;;;;;5107558;28;20448;-79
2022/10/01 00:08:39;;;;;;;20.60;19.50;;;;;;;;;;5106924;28;20419;-79
2022/10/01 00:11:13;;;;;;;20.27;19.23;;;;;;;;;;5100572;28;20444;-79
2022/10/01 00:13:40;;;;;;;20.77;19.67;;;;;;;;;;5100826;28;20962;-79
2022/10/01 00:16:08;;;;;;;20.47;19.37;;;;;;;;;;5100860;28;20858;-79
2022/10/01 00:18:36;;;;;;;20.83;19.63;;;;;;;;;;5100615;28;20419;-79
2022/10/01 00:21:06;;;;;;;20.63;19.43;;;;;;;;;;5100690;28;20480;-80
2022/10/01 00:23:34;;;;;;;21.30;20.00;;;;;;;;;;5099873;28;20486;-79
2022/10/01 00:26:16;;;;;;;21.10;19.90;;;;;;;;;;5100456;28;20437;-79
2022/10/01 00:28:45;;;;;;;20.40;19.30;;;;;;;;;;5101266;28;20773;-79
2022/10/01 00:31:13;;;;;;;20.77;19.50;;;;;;;;;;5100688;28;20423;-79
2022/10/01 00:33:40;;;;;;;20.80;19.70;;;;;;;;;;5100481;28;20484;-80
2022/10/01 00:36:08;;;;;;;20.30;19.20;;;;;;;;;;5100972;28;20880;-79
2022/10/01 00:38:36;;;;;;;20.60;19.47;;;;;;;;;;5100588;28;20454;-79
2022/10/01 00:41:04;;;;;;;20.77;19.50;;;;;;;;;;5100498;28;20455;-79
2022/10/01 00:43:34;;;;;;;21.40;20.20;;;;;;;;;;5100851;28;20439;-79
2022/10/01 00:46:03;;;;;;;20.47;19.37;;;;;;;;;;5100320;28;20452;-79
2022/10/01 00:48:32;;;;;;;21.57;20.27;;;;;;;;;;5100806;28;20455;-79
2022/10/01 00:51:00;;;;;;;21.60;20.20;;;;;;;;;;5100405;28;20448;-80
2022/10/01 00:53:27;;;;;;;20.47;19.47;;;;;;;;;;5099674;28;20495;-79
2022/10/01 00:55:56;;;;;;;22.70;21.10;;;;;;;;;;5100550;28;20426;-79
2022/10/01 00:58:24;;;;;;;20.90;19.80;;;;;;;;;;5099881;28;20448;-80
2022/10/01 01:00:54;;;;;;;21.87;20.47;;;;;;;;;;5099794;28;20474;-79
2022/10/01 01:03:22;;;;;;;21.47;20.37;;;;;;;;;;5099469;28;20470;-78
2022/10/01 01:05:49;;;;;;;20.90;19.70;;;;;;;;;;5100474;28;20440;-79
2022/10/01 01:08:17;;;;;;;20.70;19.50;;;;;;;;;;5100877;28;20423;-79
2022/10/01 01:10:48;;;;;;;20.53;19.30;;;;;;;;;;5100117;28;20427;-79
2022/10/01 01:13:18;;;;;;;20.57;19.47;;;;;;;;;;5098563;28;21060;-79
2022/10/01 01:15:48;;;;;;;21.03;19.83;;;;;;;;;;5098656;28;20439;-79
2022/10/01 01:18:19;;;;;;;20.33;19.17;;;;;;;;;;5099831;28;20456;-79
2022/10/01 01:20:51;;;;;;;20.63;19.43;;;;;;;;;;5099578;28;20412;-79
2022/10/01 01:23:31;;;;;;;21.23;19.80;;;;;;;;;;5098843;28;20479;-79
2022/10/01 01:26:01;;;;;;;21.13;19.90;;;;;;;;;;5099095;28;20797;-78
2022/10/01 01:28:32;;;;;;;21.67;20.20;;;;;;;;;;5099458;28;20447;-79
2022/10/01 01:31:02;;;;;;;20.97;19.77;;;;;;;;;;5098971;28;20459;-79
2022/10/01 01:33:33;;;;;;;22.90;21.07;;;;;;;;;;5099216;28;20579;-79
2022/10/01 01:36:03;;;;;;;21.73;20.13;;;;;;;;;;5100158;28;20749;-78
2022/10/01 01:38:33;;;;;;;20.97;19.87;;;;;;;;;;5099532;28;20421;-78
2022/10/01 01:41:02;;;;;;;21.20;20.07;;;;;;;;;;5099359;28;20403;-79
2022/10/01 01:43:33;;;;;;;20.40;19.30;;;;;;;;;;5098813;28;20460;-79
2022/10/01 01:46:01;;;;;;;21.47;20.20;;;;;;;;;;5099847;28;20424;-79
2022/10/01 01:48:29;;;;;;;20.73;19.63;;;;;;;;;;5099356;28;20448;-79
2022/10/01 01:50:58;;;;;;;21.30;20.17;;;;;;;;;;5098951;28;20424;-80
2022/10/01 01:53:25;;;;;;;20.83;19.70;;;;;;;;;;5098337;28;20496;-80
2022/10/01 01:55:56;;;;;;;21.80;20.60;;;;;;;;;;5099161;28;20782;-79
2022/10/01 01:58:25;;;;;;;21.60;19.83;;;;;;;;;;5099374;28;20498;-79
2022/10/01 02:00:54;;;;;;;21.23;19.93;;;;;;;;;;5098638;28;20470;-80
2022/10/01 02:03:22;;;;;;;21.20;19.90;;;;;;;;;;5099353;28;20843;-79
2022/10/01 02:05:55;;;;;;;20.07;18.97;;;;;;;;;;5098390;28;20427;-79
2022/10/01 02:08:28;;;;;;;21.07;19.97;;;;;;;;;;5098087;28;20436;-79
2022/10/01 02:11:12;;;;;;;21.57;20.00;;;;;;;;;;5102760;28;20794;-81
2022/10/01 02:13:47;;;;;;;20.63;19.53;;;;;;;;;;5102027;28;20495;-79
2022/10/01 02:16:19;;;;;;;21.10;19.80;;;;;;;;;;5103735;28;20427;-79
2022/10/01 02:18:50;;;;;;;21.47;20.03;;;;;;;;;;5102622;28;20437;-78
2022/10/01 02:21:20;;;;;;;20.40;19.30;;;;;;;;;;5102956;28;20444;-79
2022/10/01 02:23:50;;;;;;;21.63;20.43;;;;;;;;;;5100495;28;20455;-78
2022/10/01 02:26:20;;;;;;;21.80;20.50;;;;;;;;;;5097193;28;20818;-79
2022/10/01 02:28:49;;;;;;;21.00;19.83;;;;;;;;;;5097320;28;20449;-79
2022/10/01 02:31:18;;;;;;;20.73;19.60;;;;;;;;;;5096506;28;20431;-79
2022/10/01 02:33:46;;;;;;;21.13;20.03;;;;;;;;;;5096684;28;20465;-79
2022/10/01 02:36:14;;;;;;;20.53;19.33;;;;;;;;;;5097309;28;20449;-79
2022/10/01 02:38:42;;;;;;;20.20;19.10;;;;;;;;;;5096702;28;20423;-79
2022/10/01 02:41:11;;;;;;;20.30;19.10;;;;;;;;;;5096230;28;20444;-79
2022/10/01 02:43:40;;;;;;;20.57;19.23;;;;;;;;;;5096215;28;20487;-78
2022/10/01 02:46:13;;;;;;;20.70;19.50;;;;;;;;;;5096283;28;20470;-78
2022/10/01 02:48:41;;;;;;;21.67;20.27;;;;;;;;;;5096179;28;20919;-79
2022/10/01 02:51:16;;;;;;;20.77;19.57;;;;;;;;;;5095463;28;20453;-79
2022/10/01 02:53:45;;;;;;;20.77;19.67;;;;;;;;;;5096409;28;20574;-78
2022/10/01 02:57:21;;;;;;;20.90;19.80;;;;;;;;;;5096552;28;20459;-79
2022/10/01 02:59:00;;;;;;;20.90;19.70;;;;;;;;;;5096123;28;20524;-79
2022/10/01 03:01:27;;;;;;;21.23;20.03;;;;;;;;;;5095809;28;20459;-79
2022/10/01 03:03:56;;;;;;;21.60;20.40;;;;;;;;;;5095452;28;20455;-79
2022/10/01 03:06:23;;;;;;;21.73;20.43;;;;;;;;;;5095670;28;20944;-78
2022/10/01 03:08:51;;;;;;;21.37;20.27;;;;;;;;;;5096128;28;20822;-79
2022/10/01 03:11:18;;;;;;;21.23;19.93;;;;;;;;;;5095933;28;20455;-79
2022/10/01 03:13:45;;;;;;;20.13;19.03;;;;;;;;;;5095726;28;20488;-79
2022/10/01 03:16:13;;;;;;;21.60;20.33;;;;;;;;;;5096012;28;20456;-79
2022/10/01 03:18:40;;;;;;;21.33;20.13;;;;;;;;;;5095628;28;20456;-79
2022/10/01 03:21:09;;;;;;;21.43;20.13;;;;;;;;;;5095875;28;20452;-79
2022/10/01 03:23:36;;;;;;;20.40;19.30;;;;;;;;;;5096267;28;20972;-79
2022/10/01 03:26:03;;;;;;;21.00;19.77;;;;;;;;;;5095731;28;20515;-79
2022/10/01 03:28:30;;;;;;;20.57;19.27;;;;;;;;;;5096290;28;20445;-79
2022/10/01 03:31:05;;;;;;;21.97;20.47;;;;;;;;;;5095667;28;20445;-79
2022/10/01 03:33:32;;;;;;;21.27;19.87;;;;;;;;;;5095085;28;20816;-79
2022/10/01 03:36:00;;;;;;;21.63;20.33;;;;;;;;;;5095106;28;20460;-79
2022/10/01 03:38:29;;;;;;;21.37;20.17;;;;;;;;;;5096017;28;20440;-79
2022/10/01 03:40:56;;;;;;;21.30;19.77;;;;;;;;;;5095162;28;20445;-79
2022/10/01 03:43:25;;;;;;;22.20;20.90;;;;;;;;;;5095147;28;20983;-79
2022/10/01 03:45:53;;;;;;;21.70;20.60;;;;;;;;;;5095749;28;20936;-79
2022/10/01 03:48:20;;;;;;;22.93;21.43;;;;;;;;;;5095957;28;20444;-79
2022/10/01 03:50:53;;;;;;;23.77;21.73;;;;;;;;;;5096194;28;20474;-78
2022/10/01 03:53:21;;;;;;;22.37;21.07;;;;;;;;;;5095186;28;20508;-79
2022/10/01 03:55:50;;;;;;;22.10;20.70;;;;;;;;;;5095951;28;20498;-79
2022/10/01 03:58:18;;;;;;;23.03;21.47;;;;;;;;;;5095963;28;20807;-79
2022/10/01 04:00:46;;;;;;;21.67;20.37;;;;;;;;;;5095591;28;20483;-79
2022/10/01 04:03:13;;;;;;;22.33;20.90;;;;;;;;;;5095345;28;20456;-79
2022/10/01 04:05:40;;;;;;;22.13;20.87;;;;;;;;;;5095732;28;20448;-79
2022/10/01 04:08:08;;;;;;;22.73;21.33;;;;;;;;;;5095140;28;20475;-79
2022/10/01 04:10:35;;;;;;;21.50;20.40;;;;;;;;;;5095582;28;20426;-79
2022/10/01 04:13:05;;;;;;;20.30;19.20;;;;;;;;;;5095698;28;20483;-79
2022/10/01 04:15:32;;;;;;;21.13;20.10;;;;;;;;;;5095840;28;21019;-79
2022/10/01 04:18:01;;;;;;;21.20;20.13;;;;;;;;;;5095325;28;20468;-79
2022/10/01 04:20:28;;;;;;;21.17;19.87;;;;;;;;;;5095969;28;20466;-79
2022/10/01 04:22:55;;;;;;;21.07;19.87;;;;;;;;;;5095502;28;20472;-79
2022/10/01 04:25:22;;;;;;;20.20;19.20;;;;;;;;;;5096154;28;20441;-79
2022/10/01 04:27:57;;;;;;;20.87;19.67;;;;;;;;;;5096141;28;20457;-79
2022/10/01 04:30:26;;;;;;;20.10;19.10;;;;;;;;;;5095408;28;20471;-79
2022/10/01 04:32:53;;;;;;;20.97;19.87;;;;;;;;;;5095322;28;20542;-79
2022/10/01 04:35:22;;;;;;;21.43;20.33;;;;;;;;;;5095583;28;20477;-79
2022/10/01 04:37:49;;;;;;;20.80;19.67;;;;;;;;;;5095851;28;20480;-79
2022/10/01 04:40:17;;;;;;;19.90;18.90;;;;;;;;;;5095551;28;20453;-79
2022/10/01 04:42:45;;;;;;;21.20;20.10;;;;;;;;;;5095016;28;20459;-78
2022/10/01 04:45:12;;;;;;;21.47;20.37;;;;;;;;;;5095463;28;20463;-78
2022/10/01 04:47:48;;;;;;;21.43;20.33;;;;;;;;;;5099057;28;20419;-79
2022/10/01 04:50:15;;;;;;;20.47;19.43;;;;;;;;;;5099931;28;20483;-79
2022/10/01 04:52:43;;;;;;;21.10;20.00;;;;;;;;;;5098352;28;20491;-79
2022/10/01 04:55:10;;;;;;;20.33;19.13;;;;;;;;;;5099015;28;20984;-79
2022/10/01 04:57:38;;;;;;;19.97;18.87;;;;;;;;;;5099346;28;20449;-79
2022/10/01 05:00:06;;;;;;;22.03;20.83;;;;;;;;;;5098743;28;20455;-78
2022/10/01 05:02:34;;;;;;;20.97;19.87;;;;;;;;;;5098351;28;20480;-78
2022/10/01 05:05:03;;;;;;;20.07;19.17;;;;;;;;;;5098731;28;20392;-79
2022/10/01 05:07:31;;;;;;;21.53;20.20;;;;;;;;;;5098866;28;20464;-79
2022/10/01 05:09:59;;;;;;;20.97;19.97;;;;;;;;;;5098877;28;20441;-79
2022/10/01 05:12:26;;;;;;;22.17;21.07;;;;;;;;;;5098464;28;20443;-80
2022/10/01 05:14:53;;;;;;;21.97;20.87;;;;;;;;;;5098516;28;20480;-79
2022/10/01 05:17:22;;;;;;;21.73;20.63;;;;;;;;;;5099110;28;20509;-79
2022/10/01 05:19:49;;;;;;;21.90;20.80;;;;;;;;;;5098872;28;20448;-78
2022/10/01 05:22:18;;;;;;;22.37;21.27;;;;;;;;;;5098519;28;20473;-79
2022/10/01 05:24:46;;;;;;;20.40;19.50;;;;;;;;;;5098225;28;20470;-78
2022/10/01 05:27:13;;;;;;;21.43;20.33;;;;;;;;;;5098917;28;20451;-79
2022/10/01 05:29:40;;;;;;;21.37;20.27;;;;;;;;;;5098660;28;20449;-79
2022/10/01 05:32:08;;;;;;;21.10;20.07;;;;;;;;;;5097904;28;20467;-79
2022/10/01 05:34:35;;;;;;;21.53;20.43;;;;;;;;;;5099033;28;20491;-79
2022/10/01 05:37:03;;;;;;;21.57;20.37;;;;;;;;;;5098153;28;20933;-79
2022/10/01 05:39:32;;;;;;;29.27;27.97;;;;;;;;;;5098729;28;20426;-79
2022/10/01 05:42:01;;;;;;;23.50;22.40;;;;;;;;;;5097391;28;20431;-79
2022/10/01 05:44:36;;;;;;;22.23;21.23;;;;;;;;;;5098847;28;20582;-79
2022/10/01 05:47:04;;;;;;;23.50;22.40;;;;;;;;;;5098724;28;20408;-79
2022/10/01 05:49:31;;;;;;;21.80;20.80;;;;;;;;;;5098292;28;20438;-79
2022/10/01 05:51:59;;;;;;;21.23;20.23;;;;;;;;;;5097893;28;20471;-79
2022/10/01 05:54:28;;;;;;;21.37;20.37;;;;;;;;;;5097900;28;20468;-79
2022/10/01 05:56:56;;;;;;;21.07;20.17;;;;;;;;;;5097560;28;20470;-79
2022/10/01 05:59:24;;;;;;;21.73;20.73;;;;;;;;;;5097723;28;20455;-79
2022/10/01 06:01:52;;;;;;;24.07;22.17;;;;;;;;;;5097725;28;20467;-79
2022/10/01 06:04:19;;;;;;;21.20;20.30;;;;;;;;;;5097608;28;20443;-80
2022/10/01 06:06:46;;;;;;;21.53;20.53;;;;;;;;;;5098202;28;20445;-79
2022/10/01 06:09:14;;;;;;;22.03;21.03;;;;;;;;;;5098606;28;20919;-79
2022/10/01 06:11:41;;;;;;;22.27;21.20;;;;;;;;;;5097859;28;20448;-79
2022/10/01 06:14:10;;;;;;;22.70;21.63;;;;;;;;;;5098279;28;20509;-79
2022/10/01 06:16:37;;;;;;;21.80;20.80;;;;;;;;;;5111659;28;20458;-79
2022/10/01 06:19:05;;;;;;;22.30;21.20;;;;;;;;;;5111712;28;20445;-78
2022/10/01 06:21:32;;;;;;;22.90;21.63;;;;;;;;;;5109341;28;20473;-78
2022/10/01 06:24:00;;;;;;;23.67;22.53;;;;;;;;;;5097802;28;20492;-79
2022/10/01 06:26:27;;;;;;;21.90;21.00;;;;;;;;;;5097926;28;20443;-78
2022/10/01 06:28:55;;;;;;;23.00;21.90;;;;;;;;;;5097832;28;20935;-79
2022/10/01 06:31:24;;;;;;;24.03;22.93;;;;;;;;;;5097941;28;20492;-80
2022/10/01 06:33:51;;;;;;;24.53;23.33;;;;;;;;;;5097719;28;20464;-79
2022/10/01 06:36:18;;;;;;;23.77;22.77;;;;;;;;;;5098062;28;20488;-79
2022/10/01 06:38:48;;;;;;;24.83;23.73;;;;;;;;;;5098143;28;20801;-79
2022/10/01 06:41:16;;;;;;;25.80;24.70;;;;;;;;;;5098428;28;20444;-80
2022/10/01 06:43:43;;;;;;;25.73;24.63;;;;;;;;;;5096744;28;20481;-80
2022/10/01 06:46:11;;;;;;;24.50;23.50;;;;;;;;;;5098414;28;20455;-80
2022/10/01 06:48:39;;;;;;;25.43;24.33;;;;;;;;;;5098268;28;20468;-79
2022/10/01 06:51:07;;;;;;;24.23;23.23;;;;;;;;;;5097883;28;20442;-80
2022/10/01 06:53:34;;;;;;;24.53;23.53;;;;;;;;;;5098428;28;20453;-79
2022/10/01 06:56:04;;;;;;;24.63;23.63;;;;;;;;;;5097530;28;20462;-79
2022/10/01 06:58:32;;;;;;;24.50;23.50;;;;;;;;;;5097158;28;20411;-78
2022/10/01 07:01:00;;;;;;;22.60;21.70;;;;;;;;;;5094624;28;20431;-78
2022/10/01 07:03:27;;;;;;;21.20;20.40;;;;;;;;;;5097021;28;20546;-80
2022/10/01 07:06:01;;;;;;;23.00;22.00;;;;;;;;;;5098000;28;20795;-79
2022/10/01 07:08:28;;;;;;;22.10;21.20;;;;;;;;;;5096930;28;20407;-79
2022/10/01 07:11:00;;;;;;;23.83;22.83;;;;;;;;;;5095009;28;20463;-78
2022/10/01 07:13:27;;;;;;;22.77;21.87;;;;;;;;;;5094767;28;20486;-79
2022/10/01 07:15:54;;;;;;;22.40;21.50;;;;;;;;;;5095439;28;20476;-78
2022/10/01 07:18:22;;;;;;;21.50;20.60;;;;;;;;;;5095877;28;20448;-78
2022/10/01 07:20:49;;;;;;;24.03;23.03;;;;;;;;;;5095912;28;20460;-79
2022/10/01 07:23:18;;;;;;;21.47;20.63;;;;;;;;;;5094653;28;20480;-79
2022/10/01 07:25:46;;;;;;;21.10;20.30;;;;;;;;;;5095299;28;20910;-79
2022/10/01 07:28:16;;;;;;;21.67;20.77;;;;;;;;;;5094771;28;20955;-79
2022/10/01 07:30:46;;;;;;;22.40;21.50;;;;;;;;;;5095242;28;20432;-78
2022/10/01 07:33:13;;;;;;;21.27;20.40;;;;;;;;;;5094470;28;20479;-79
2022/10/01 07:35:41;;;;;;;22.50;21.50;;;;;;;;;;5096018;28;20455;-80
2022/10/01 07:38:08;;;;;;;23.33;22.43;;;;;;;;;;5094992;28;20460;-77
2022/10/01 07:40:37;;;;;;;23.10;22.20;;;;;;;;;;5093535;28;20461;-79
2022/10/01 07:43:04;;;;;;;22.67;21.77;;;;;;;;;;5093225;28;20466;-78
2022/10/01 07:45:32;;;;;;;22.80;21.90;;;;;;;;;;5094684;28;20454;-79
2022/10/01 07:48:00;;;;;;;23.03;22.03;;;;;;;;;;5097099;28;20456;-78
2022/10/01 07:50:29;;;;;;;24.27;23.27;;;;;;;;;;5095616;28;20445;-79
2022/10/01 07:52:57;;;;;;;22.17;21.23;;;;;;;;;;5094358;28;20874;-78
2022/10/01 07:55:26;;;;;;;22.10;21.20;;;;;;;;;;5095891;28;20476;-79
2022/10/01 07:57:55;;;;;;;22.87;21.97;;;;;;;;;;5094997;28;20432;-78
2022/10/01 08:00:23;;;;;;;22.73;21.83;;;;;;;;;;5094856;28;20456;-78
2022/10/01 08:02:52;;;;;;;21.47;20.63;;;;;;;;;;5093601;28;20438;-79
2022/10/01 08:05:20;;;;;;;22.40;21.50;;;;;;;;;;5094341;28;20447;-78
2022/10/01 08:07:48;;;;;;;21.93;20.83;;;;;;;;;;5094905;28;20495;-79
2022/10/01 08:10:16;;;;;;;20.67;19.87;;;;;;;;;;5094437;28;20452;-79
2022/10/01 08:12:44;;;;;;;20.70;19.70;;;;;;;;;;5093625;28;20444;-78
2022/10/01 08:15:13;;;;;;;20.63;19.83;;;;;;;;;;5094752;28;20455;-79
2022/10/01 08:17:40;;;;;;;22.40;21.30;;;;;;;;;;5094350;28;20431;-78
2022/10/01 08:20:08;;;;;;;20.17;19.37;;;;;;;;;;5094533;28;20452;-78
2022/10/01 08:22:36;;;;;;;20.27;19.40;;;;;;;;;;5097507;28;20533;-78
2022/10/01 08:25:03;;;;;;;22.37;21.37;;;;;;;;;;5098589;28;20423;-79
2022/10/01 08:27:31;;;;;;;22.30;21.40;;;;;;;;;;5098411;28;20427;-78
2022/10/01 08:29:58;;;;;;;21.53;20.63;;;;;;;;;;5098595;28;20431;-79
2022/10/01 08:32:27;;;;;;;20.20;19.50;;;;;;;;;;5098021;28;20442;-78
2022/10/01 08:34:57;;;;;;;20.37;19.57;;;;;;;;;;5098413;28;20435;-78
2022/10/01 08:37:26;;;;;;;20.40;19.60;;;;;;;;;;5098340;28;20492;-78
2022/10/01 08:39:54;;;;;;;21.70;20.90;;;;;;;;;;5098439;28;20480;-78
2022/10/01 08:42:28;;;;;;;22.90;22.00;;;;;;;;;;5097728;28;21417;-79
2022/10/01 08:44:56;;;;;;;22.40;21.40;;;;;;;;;;5098783;28;20427;-79
2022/10/01 08:47:28;;;;;;;22.53;21.63;;;;;;;;;;5098833;28;20431;-78
2022/10/01 08:49:59;;;;;;;22.50;21.60;;;;;;;;;;5099203;28;20400;-78
2022/10/01 08:52:30;;;;;;;24.97;23.73;;;;;;;;;;5097831;28;21014;-79
2022/10/01 08:54:59;;;;;;;23.30;22.30;;;;;;;;;;5097570;28;20443;-79
2022/10/01 08:57:29;;;;;;;24.57;23.57;;;;;;;;;;5097803;28;20459;-79
2022/10/01 08:59:58;;;;;;;24.27;23.07;;;;;;;;;;5098113;28;20847;-77
2022/10/01 09:02:26;;;;;;;22.97;22.07;;;;;;;;;;5097075;28;20468;-79
2022/10/01 09:04:55;;;;;;;26.30;24.70;;;;;;;;;;5097382;28;20464;-78
2022/10/01 09:07:30;;;;;;;23.00;22.10;;;;;;;;;;5097011;28;20466;-79
2022/10/01 09:10:03;;;;;;;23.13;22.23;;;;;;;;;;5097072;28;20436;-79
2022/10/01 09:12:36;;;;;;;23.87;22.97;;;;;;;;;;5096892;28;20472;-77
2022/10/01 09:15:10;;;;;;;23.97;22.50;;;;;;;;;;5099513;28;20436;-80
2022/10/01 09:17:43;;;;;;;24.10;23.10;;;;;;;;;;5100123;28;20446;-81
2022/10/01 09:20:12;;;;;;;23.50;22.50;;;;;;;;;;5096910;28;20435;-78
2022/10/01 09:22:42;;;;;;;23.63;22.67;;;;;;;;;;5094785;28;20519;-78
2022/10/01 09:25:13;;;;;;;24.40;23.40;;;;;;;;;;5096605;28;20449;-78
2022/10/01 09:27:41;;;;;;;25.00;23.80;;;;;;;;;;5095614;28;20444;-78
2022/10/01 09:30:12;;;;;;;24.57;23.47;;;;;;;;;;5096274;28;20449;-77
2022/10/01 09:32:42;;;;;;;24.53;23.43;;;;;;;;;;5095933;28;20446;-77
2022/10/01 09:35:19;;;;;;;23.93;22.77;;;;;;;;;;5096435;28;20416;-76
2022/10/01 09:37:52;;;;;;;24.37;23.20;;;;;;;;;;5095729;28;21003;-78
2022/10/01 09:40:22;;;;;;;23.80;22.80;;;;;;;;;;5096260;28;20775;-76
2022/10/01 09:42:50;;;;;;;23.77;22.27;;;;;;;;;;5096067;28;20432;-77
2022/10/01 09:45:18;;;;;;;23.40;22.17;;;;;;;;;;5095750;28;20457;-77
2022/10/01 09:47:48;;;;;;;24.07;22.87;;;;;;;;;;5095382;28;20532;-78
2022/10/01 09:50:16;;;;;;;24.30;21.90;;;;;;;;;;5095305;28;20433;-77
2022/10/01 09:52:47;;;;;;;22.30;21.20;;;;;;;;;;5094922;28;20443;-78
2022/10/01 09:55:23;;;;;;;24.80;23.50;;;;;;;;;;5095981;28;20407;-78
2022/10/01 09:57:53;;;;;;;23.80;22.70;;;;;;;;;;5095553;28;20442;-78
2022/10/01 10:00:21;;;;;;;23.67;22.37;;;;;;;;;;5095499;28;20956;-78
2022/10/01 10:02:49;;;;;;;24.07;22.70;;;;;;;;;;5095172;28;20444;-78
2022/10/01 10:05:18;;;;;;;25.43;24.13;;;;;;;;;;5095690;28;20429;-77
2022/10/01 10:07:46;;;;;;;26.20;24.60;;;;;;;;;;5094927;28;20540;-77
2022/10/01 10:10:20;;;;;;;26.00;24.40;;;;;;;;;;5095258;28;20942;-78
2022/10/01 10:12:47;;;;;;;27.80;26.20;;;;;;;;;;5095055;28;20474;-78
2022/10/01 10:15:17;;;;;;;26.47;24.67;;;;;;;;;;5095251;28;20959;-78
2022/10/01 10:17:48;;;;;;;25.57;23.87;;;;;;;;;;5095548;28;20485;-78
2022/10/01 10:20:22;;;;;;;26.17;24.67;;;;;;;;;;5095470;28;20928;-78
2022/10/01 10:22:49;;;;;;;25.83;24.23;;;;;;;;;;5095112;28;20454;-78
2022/10/01 10:25:21;;;;;;;23.17;21.73;;;;;;;;;;5095652;28;20424;-78
2022/10/01 10:27:54;;;;;;;24.17;22.77;;;;;;;;;;5095210;28;20422;-78
2022/10/01 10:30:23;;;;;;;25.00;23.50;;;;;;;;;;5094921;28;20459;-77
2022/10/01 10:32:51;;;;;;;26.83;25.07;;;;;;;;;;5094553;28;20443;-78
2022/10/01 10:35:20;;;;;;;26.23;24.70;;;;;;;;;;5095205;28;20563;-77
2022/10/01 10:37:49;;;;;;;25.37;23.70;;;;;;;;;;5094635;28;20482;-77
2022/10/01 10:40:20;;;;;;;24.37;22.83;;;;;;;;;;5095030;28;20806;-77
2022/10/01 10:42:49;;;;;;;26.30;24.53;;;;;;;;;;5094145;28;20448;-78
2022/10/01 10:45:19;;;;;;;24.13;22.70;;;;;;;;;;5094454;28;20534;-78
2022/10/01 10:47:50;;;;;;;24.63;23.13;;;;;;;;;;5094517;28;20512;-77
2022/10/01 10:50:29;;;;;;;23.77;22.17;;;;;;;;;;5094226;28;21008;-78
2022/10/01 10:52:56;;;;;;;25.07;23.27;;;;;;;;;;5094035;28;20473;-78
2022/10/01 10:55:27;;;;;;;23.23;21.80;;;;;;;;;;5094512;28;20511;-77
2022/10/01 10:57:54;;;;;;;24.23;22.83;;;;;;;;;;5094364;28;20446;-77
2022/10/01 11:00:23;;;;;;;23.60;22.07;;;;;;;;;;5094227;28;21008;-78
2022/10/01 11:02:52;;;;;;;21.63;20.43;;;;;;;;;;5094180;28;20578;-78
2022/10/01 11:05:21;;;;;;;21.73;20.53;;;;;;;;;;5094522;28;20454;-77
2022/10/01 11:07:49;;;;;;;23.63;22.10;;;;;;;;;;5094662;28;20426;-77
2022/10/01 11:10:24;;;;;;;22.03;20.63;;;;;;;;;;5094553;28;20413;-77
2022/10/01 11:13:01;;;;;;;23.23;21.93;;;;;;;;;;5093897;28;20455;-77
2022/10/01 11:15:37;;;;;;;24.07;22.40;;;;;;;;;;5094399;28;20431;-77
2022/10/01 11:18:11;;;;;;;23.50;22.10;;;;;;;;;;5094059;28;20473;-77
2022/10/01 11:20:42;;;;;;;23.47;21.87;;;;;;;;;;5094393;28;20434;-78
2022/10/01 11:23:18;;;;;;;22.70;21.30;;;;;;;;;;5093032;28;20483;-77
2022/10/01 11:25:50;;;;;;;24.30;22.80;;;;;;;;;;5094429;28;20435;-77
2022/10/01 11:28:37;;;;;;;23.13;21.83;;;;;;;;;;5094675;28;20427;-77
2022/10/01 11:31:10;;;;;;;25.63;23.50;;;;;;;;;;5094581;28;20467;-77
2022/10/01 11:33:43;;;;;;;22.30;21.00;;;;;;;;;;5095177;28;20469;-77
2022/10/01 11:36:14;;;;;;;24.23;22.83;;;;;;;;;;5094013;28;20448;-77
2022/10/01 11:38:45;;;;;;;23.70;22.40;;;;;;;;;;5094416;28;20841;-77
2022/10/01 11:41:19;;;;;;;26.00;24.37;;;;;;;;;;5093988;28;20438;-78
2022/10/01 11:43:50;;;;;;;25.13;23.40;;;;;;;;;;5093377;28;20493;-78
2022/10/01 11:46:28;;;;;;;23.70;22.13;;;;;;;;;;5093721;28;20413;-78
2022/10/01 11:48:57;;;;;;;23.90;22.40;;;;;;;;;;5093776;28;20433;-78
2022/10/01 11:51:27;;;;;;;24.53;22.87;;;;;;;;;;5093583;28;20452;-78
2022/10/01 11:53:57;;;;;;;24.27;22.47;;;;;;;;;;5094716;28;20473;-78
2022/10/01 11:59:19;;;;;;;22.60;21.07;;;;;;;;;;5098210;28;20453;-78
2022/10/01 12:01:50;;;;;;;23.13;21.80;;;;;;;;;;5098852;28;20508;-82
2022/10/01 12:04:28;;;;;;;23.67;22.17;;;;;;;;;;5101633;28;20416;-80
2022/10/01 12:06:59;;;;;;;22.90;21.60;;;;;;;;;;5098483;28;20441;-78
2022/10/01 12:09:31;;;;;;;23.93;22.33;;;;;;;;;;5097974;28;20527;-77
2022/10/01 12:12:01;;;;;;;22.67;21.30;;;;;;;;;;5097222;28;20787;-78
2022/10/01 12:14:33;;;;;;;23.47;21.77;;;;;;;;;;5098085;28;20443;-77
2022/10/01 12:17:05;;;;;;;22.43;20.80;;;;;;;;;;5097739;28;20992;-77
2022/10/01 12:19:34;;;;;;;21.13;19.73;;;;;;;;;;5098002;28;20485;-77
2022/10/01 12:22:05;;;;;;;20.70;19.37;;;;;;;;;;5097432;28;20442;-77
2022/10/01 12:24:36;;;;;;;327.33;278.07;;;;;;;;;;5097840;28;20439;-78
2022/10/01 12:27:09;;;;;;;23.10;21.67;;;;;;;;;;5097598;28;20453;-77
2022/10/01 12:29:43;;;;;;;22.03;20.73;;;;;;;;;;5097535;28;20456;-77
2022/10/01 12:32:14;;;;;;;21.07;19.90;;;;;;;;;;5097187;28;20470;-77
2022/10/01 12:34:49;;;;;;;35.00;32.77;;;;;;;;;;5097064;28;20449;-77
2022/10/01 12:37:19;;;;;;;21.53;20.33;;;;;;;;;;5096984;28;20464;-77
2022/10/01 12:39:54;;;;;;;22.40;21.00;;;;;;;;;;5097385;28;20434;-77
2022/10/01 12:42:37;;;;;;;24.17;22.70;;;;;;;;;;5096797;28;20544;-77
2022/10/01 12:45:11;;;;;;;24.17;22.67;;;;;;;;;;5084307;28;20458;-77
2022/10/01 12:47:43;;;;;;;22.53;21.03;;;;;;;;;;5096928;28;20898;-77
2022/10/01 12:50:17;;;;;;;23.30;21.83;;;;;;;;;;5097234;28;20404;-77
2022/10/01 12:52:49;;;;;;;24.87;23.30;;;;;;;;;;5096540;28;20462;-78
2022/10/01 12:55:20;;;;;;;24.10;22.37;;;;;;;;;;5096870;28;20432;-78
2022/10/01 12:57:53;;;;;;;22.30;20.90;;;;;;;;;;5096717;28;20478;-78
2022/10/01 13:00:23;;;;;;;24.80;23.10;;;;;;;;;;5096995;28;20826;-77
2022/10/01 13:03:09;;;;;;;23.80;22.00;;;;;;;;;;5096462;28;20506;-77
2022/10/01 13:05:40;;;;;;;24.33;22.60;;;;;;;;;;5096589;28;21060;-77
2022/10/01 13:08:19;;;;;;;20.77;19.37;;;;;;;;;;5096355;28;20407;-77
2022/10/01 13:10:49;;;;;;;21.63;20.23;;;;;;;;;;5096795;28;20424;-78
2022/10/01 13:13:17;;;;;;;21.37;20.03;;;;;;;;;;5096984;28;20465;-78
2022/10/01 13:15:48;;;;;;;21.60;20.40;;;;;;;;;;5096748;28;20449;-77
2022/10/01 13:18:22;;;;;;;19.70;18.43;;;;;;;;;;5096764;28;20471;-78
2022/10/01 13:20:53;;;;;;;18.20;17.30;;;;;;;;;;5098493;28;20767;-81
2022/10/01 13:23:23;;;;;;;19.00;17.90;;;;;;;;;;5098622;28;20482;-77
2022/10/01 13:25:59;;;;;;;20.17;18.97;;;;;;;;;;5097723;28;20397;-75
2022/10/01 13:28:29;;;;;;;18.97;18.07;;;;;;;;;;5097987;28;20455;-81
2022/10/01 13:30:59;;;;;;;20.50;19.20;;;;;;;;;;5101359;28;20436;-83
2022/10/01 13:33:28;;;;;;;20.00;18.90;;;;;;;;;;5102836;28;20518;-82
2022/10/01 13:35:59;;;;;;;19.40;18.20;;;;;;;;;;5102177;28;20449;-80
2022/10/01 13:38:29;;;;;;;18.93;17.70;;;;;;;;;;5100577;28;20478;-76
2022/10/01 13:41:00;;;;;;;19.87;18.77;;;;;;;;;;5095857;28;20450;-76
2022/10/01 13:43:28;;;;;;;18.40;17.40;;;;;;;;;;5095998;28;20477;-76
2022/10/01 13:45:56;;;;;;;19.60;18.60;;;;;;;;;;5100264;28;20444;-82
2022/10/01 13:48:27;;;;;;;18.90;17.80;;;;;;;;;;5098667;28;20457;-77
2022/10/01 13:50:57;;;;;;;18.37;17.40;;;;;;;;;;5102362;28;20465;-80
2022/10/01 13:53:25;;;;;;;18.40;17.50;;;;;;;;;;5090301;28;20493;-81
2022/10/01 13:55:53;;;;;;;18.07;17.17;;;;;;;;;;5101154;28;20805;-82
2022/10/01 13:58:25;;;;;;;17.53;16.73;;;;;;;;;;5101195;28;20479;-82
2022/10/01 14:00:53;;;;;;;18.87;17.87;;;;;;;;;;5101204;28;20455;-82
2022/10/01 14:03:28;;;;;;;17.70;16.80;;;;;;;;;;5100879;28;20483;-81
2022/10/01 14:05:57;;;;;;;17.53;16.73;;;;;;;;;;5101729;28;20437;-82
2022/10/01 14:08:26;;;;;;;23.07;21.60;;;;;;;;;;5100474;28;20446;-80
2022/10/01 14:16:30;;;;;;;41.13;38.43;;;;;;;;;;5098180;28;20422;-77
2022/10/01 14:18:59;;;;;;;42.60;39.90;;;;;;;;;;5094383;28;20485;-77
2022/10/01 14:21:36;;;;;;;35.60;33.60;;;;;;;;;;5094980;28;20447;-76
2022/10/01 14:24:09;;;;;;;30.90;28.73;;;;;;;;;;5095291;28;20435;-77
2022/10/01 14:26:40;;;;;;;28.47;26.60;;;;;;;;;;5095055;28;20436;-76
2022/10/01 14:29:13;;;;;;;24.97;23.57;;;;;;;;;;5095011;28;20438;-76
2022/10/01 14:31:45;;;;;;;24.40;23.03;;;;;;;;;;5094414;28;20454;-76
2022/10/01 14:34:21;;;;;;;24.87;23.17;;;;;;;;;;5095311;28;20473;-77
2022/10/01 14:36:49;;;;;;;23.70;22.10;;;;;;;;;;5095106;28;20449;-76
2022/10/01 14:39:18;;;;;;;21.20;19.80;;;;;;;;;;5094554;28;20484;-77